createdAt,value
2019-02-17T00:00:19.225Z,77.95
2019-02-17T00:01:19.365Z,78.33
2019-02-17T00:02:19.203Z,78.22
2019-02-17T00:03:19.190Z,78.22
2019-02-17T00:04:19.182Z,78.22
2019-02-17T00:05:19.173Z,78.43
2019-02-17T00:06:19.159Z,78.64
2019-02-17T00:07:19.555Z,78.33
2019-02-17T00:08:19.142Z,78.12
2019-02-17T00:09:19.126Z,78.02
2019-02-17T00:10:19.114Z,77.91
2019-02-17T00:11:19.103Z,77.81
2019-02-17T00:12:19.107Z,78.53
2019-02-17T00:13:19.209Z,77.98
2019-02-17T00:14:19.349Z,78.22
2019-02-17T00:15:19.065Z,77.87
2019-02-17T00:16:19.159Z,78.22
2019-02-17T00:17:19.097Z,78.43
2019-02-17T00:18:19.031Z,77.77
2019-02-17T00:19:19.316Z,78.08
2019-02-17T00:20:19.010Z,77.56
2019-02-17T00:21:19.423Z,78.29
2019-02-17T00:22:18.992Z,78.22
2019-02-17T00:23:18.991Z,78.50
2019-02-17T00:24:18.971Z,78.50
2019-02-17T00:25:20.545Z,78.29
2019-02-17T00:26:18.970Z,78.53
2019-02-17T00:27:18.936Z,78.29
2019-02-17T00:28:19.234Z,78.29
2019-02-17T00:29:18.928Z,78.29
2019-02-17T00:30:18.906Z,78.29
2019-02-17T00:31:18.929Z,78.29
2019-02-17T00:32:18.881Z,78.43
2019-02-17T00:33:18.893Z,78.43
2019-02-17T00:34:18.860Z,78.39
2019-02-17T00:35:19.257Z,78.39
2019-02-17T00:36:18.841Z,78.50
2019-02-17T00:37:18.880Z,77.47
2019-02-17T00:38:18.819Z,77.56
2019-02-17T00:39:18.812Z,77.50
2019-02-17T00:40:18.801Z,77.50
2019-02-17T00:41:18.895Z,77.81
2019-02-17T00:42:18.797Z,77.91
2019-02-17T00:43:18.823Z,78.53
2019-02-17T00:44:18.759Z,78.43
2019-02-17T00:45:18.752Z,78.36
2019-02-17T00:46:18.734Z,77.84
2019-02-17T00:47:18.722Z,78.26
2019-02-17T00:48:18.998Z,78.36
2019-02-17T00:49:18.742Z,77.84
2019-02-17T00:50:18.694Z,78.26
2019-02-17T00:51:18.688Z,78.26
2019-02-17T00:52:18.672Z,78.05
2019-02-17T00:53:18.663Z,78.05
2019-02-17T00:54:18.669Z,77.95
2019-02-17T00:55:19.880Z,78.47
2019-02-17T00:56:18.630Z,78.05
2019-02-17T00:57:18.619Z,78.16
2019-02-17T00:58:18.611Z,78.09
2019-02-17T00:59:18.602Z,78.50
2019-02-17T01:00:18.589Z,78.19
2019-02-17T01:01:18.613Z,78.19
2019-02-17T01:02:18.857Z,78.61
2019-02-17T01:03:18.571Z,78.30
2019-02-17T01:04:18.583Z,78.40
2019-02-17T01:05:18.567Z,78.30
2019-02-17T01:06:18.539Z,78.09
2019-02-17T01:07:18.587Z,79.23
2019-02-17T01:08:18.530Z,79.06
2019-02-17T01:09:18.854Z,79.06
2019-02-17T01:10:18.515Z,79.06
2019-02-17T01:11:18.478Z,79.47
2019-02-17T01:12:18.464Z,79.06
2019-02-17T01:13:18.507Z,79.68
2019-02-17T01:14:18.461Z,79.47
2019-02-17T01:15:18.434Z,79.71
2019-02-17T01:16:18.714Z,79.51
2019-02-17T01:17:18.422Z,79.92
2019-02-17T01:18:18.399Z,79.61
2019-02-17T01:19:18.434Z,79.61
2019-02-17T01:20:18.390Z,79.61
2019-02-17T01:21:18.366Z,79.82
2019-02-17T01:22:18.357Z,80.02
2019-02-17T01:23:18.625Z,80.54
2019-02-17T01:24:18.340Z,80.13
2019-02-17T01:25:18.353Z,79.82
2019-02-17T01:26:18.341Z,80.13
2019-02-17T01:27:18.309Z,79.71
2019-02-17T01:28:18.296Z,79.71
2019-02-17T01:29:20.760Z,79.71
2019-02-17T01:30:18.565Z,79.78
2019-02-17T01:31:18.314Z,79.41
2019-02-17T01:32:18.250Z,79.47
2019-02-17T01:33:18.240Z,79.68
2019-02-17T01:34:18.231Z,79.99
2019-02-17T01:35:18.222Z,79.68
2019-02-17T01:36:18.215Z,79.58
2019-02-17T01:37:18.506Z,79.58
2019-02-17T01:38:18.205Z,79.58
2019-02-17T01:39:18.220Z,79.58
2019-02-17T01:40:18.167Z,79.47
2019-02-17T01:41:18.157Z,79.16
2019-02-17T01:42:18.148Z,79.51
2019-02-17T01:43:18.167Z,79.47
2019-02-17T01:44:18.419Z,79.27
2019-02-17T01:45:18.122Z,79.99
2019-02-17T01:46:18.104Z,79.82
2019-02-17T01:47:18.095Z,79.82
2019-02-17T01:48:18.084Z,79.68
2019-02-17T01:49:18.123Z,79.78
2019-02-17T01:50:18.065Z,79.51
2019-02-17T01:51:19.818Z,79.51
2019-02-17T01:52:18.052Z,79.10
2019-02-17T01:53:18.037Z,79.71
2019-02-17T01:54:18.031Z,80.02
2019-02-17T01:55:18.035Z,80.99
2019-02-17T01:56:17.999Z,80.27
2019-02-17T01:57:19.130Z,80.47
2019-02-17T01:58:17.988Z,80.99
2019-02-17T01:59:17.967Z,81.10
2019-02-17T02:00:17.957Z,80.89
2019-02-17T02:01:17.975Z,80.37
2019-02-17T02:02:17.936Z,80.47
2019-02-17T02:03:17.930Z,80.58
2019-02-17T02:04:18.199Z,80.47
2019-02-17T02:05:17.903Z,80.68
2019-02-17T02:06:17.923Z,80.37
2019-02-17T02:07:17.933Z,80.68
2019-02-17T02:08:17.871Z,80.99
2019-02-17T02:09:17.867Z,81.10
2019-02-17T02:10:17.860Z,81.20
2019-02-17T02:11:18.132Z,80.79
2019-02-17T02:12:17.834Z,80.79
2019-02-17T02:13:17.858Z,80.37
2019-02-17T02:14:17.815Z,81.10
2019-02-17T02:15:17.796Z,81.10
2019-02-17T02:16:17.799Z,80.99
2019-02-17T02:17:17.781Z,80.58
2019-02-17T02:18:18.812Z,81.14
2019-02-17T02:19:18.185Z,80.68
2019-02-17T02:20:17.745Z,81.20
2019-02-17T02:21:17.733Z,81.20
2019-02-17T02:22:17.725Z,81.20
2019-02-17T02:23:18.141Z,80.89
2019-02-17T02:24:17.706Z,80.89
2019-02-17T02:25:18.851Z,81.20
2019-02-17T02:26:17.681Z,81.20
2019-02-17T02:27:17.678Z,80.47
2019-02-17T02:28:17.662Z,80.27
2019-02-17T02:29:17.650Z,80.68
2019-02-17T02:30:17.641Z,80.37
2019-02-17T02:31:17.776Z,80.37
2019-02-17T02:32:17.918Z,80.99
2019-02-17T02:33:17.610Z,80.89
2019-02-17T02:34:17.600Z,80.68
2019-02-17T02:35:17.586Z,81.10
2019-02-17T02:36:18.142Z,80.79
2019-02-17T02:37:17.785Z,80.99
2019-02-17T02:38:17.558Z,81.30
2019-02-17T02:39:17.846Z,80.68
2019-02-17T02:40:18.537Z,80.79
2019-02-17T02:41:17.524Z,81.10
2019-02-17T02:42:17.519Z,80.73
2019-02-17T02:43:17.649Z,80.99
2019-02-17T02:44:17.491Z,81.51
2019-02-17T02:45:17.481Z,81.20
2019-02-17T02:46:17.755Z,81.30
2019-02-17T02:47:17.472Z,81.04
2019-02-17T02:48:17.450Z,81.66
2019-02-17T02:49:17.566Z,81.97
2019-02-17T02:50:17.435Z,81.87
2019-02-17T02:51:17.439Z,81.87
2019-02-17T02:52:17.409Z,81.97
2019-02-17T02:53:17.688Z,81.87
2019-02-17T02:54:17.388Z,81.56
2019-02-17T02:55:17.497Z,81.87
2019-02-17T02:56:17.384Z,81.76
2019-02-17T02:57:17.369Z,81.97
2019-02-17T02:58:17.349Z,82.39
2019-02-17T02:59:17.340Z,82.18
2019-02-17T03:01:40.180Z,81.70
2019-02-17T03:02:39.695Z,82.32
2019-02-17T03:03:39.678Z,82.63
2019-02-17T03:04:39.678Z,82.94
2019-02-17T03:05:39.671Z,82.63
2019-02-17T03:06:39.649Z,82.53
2019-02-17T03:07:40.013Z,82.63
2019-02-17T03:08:39.626Z,82.59
2019-02-17T03:09:39.638Z,82.84
2019-02-17T03:10:39.615Z,81.87
2019-02-17T03:11:39.596Z,81.76
2019-02-17T03:12:39.613Z,82.07
2019-02-17T03:13:39.631Z,82.11
2019-02-17T03:14:40.703Z,82.21
2019-02-17T03:15:39.561Z,81.80
2019-02-17T03:16:39.540Z,81.87
2019-02-17T03:17:39.557Z,81.35
2019-02-17T03:18:39.562Z,81.66
2019-02-17T03:19:39.869Z,81.49
2019-02-17T03:20:39.518Z,81.28
2019-02-17T03:21:39.800Z,81.90
2019-02-17T03:22:39.508Z,82.11
2019-02-17T03:23:39.477Z,81.97
2019-02-17T03:24:39.497Z,82.59
2019-02-17T03:25:39.504Z,81.87
2019-02-17T03:26:39.453Z,82.32
2019-02-17T03:27:39.429Z,81.66
2019-02-17T03:28:39.754Z,81.97
2019-02-17T03:29:39.432Z,81.87
2019-02-17T03:30:39.393Z,81.66
2019-02-17T03:31:39.478Z,81.76
2019-02-17T03:32:39.414Z,81.45
2019-02-17T03:33:39.366Z,81.49
2019-02-17T03:34:39.365Z,82.42
2019-02-17T03:35:39.674Z,81.59
2019-02-17T03:36:39.333Z,82.01
2019-02-17T03:37:39.429Z,81.59
2019-02-17T03:38:39.341Z,82.01
2019-02-17T03:39:39.305Z,82.53
2019-02-17T03:40:39.315Z,82.70
2019-02-17T03:41:39.307Z,82.18
2019-02-17T03:42:39.574Z,81.97
2019-02-17T03:43:39.306Z,82.01
2019-02-17T03:44:39.262Z,82.94
2019-02-17T03:45:39.260Z,82.94
2019-02-17T03:46:39.241Z,82.42
2019-02-17T03:47:39.226Z,82.63
2019-02-17T03:48:39.213Z,82.32
2019-02-17T03:49:40.556Z,82.84
2019-02-17T03:50:39.193Z,82.42
2019-02-17T03:51:39.175Z,82.63
2019-02-17T03:52:39.166Z,82.84
2019-02-17T03:53:39.171Z,83.18
2019-02-17T03:54:39.163Z,82.84
2019-02-17T03:55:39.210Z,82.84
2019-02-17T03:56:40.463Z,82.73
2019-02-17T03:57:39.115Z,82.87
2019-02-17T03:58:39.123Z,82.94
2019-02-17T03:59:39.117Z,83.15
2019-02-17T04:00:39.092Z,82.98
2019-02-17T04:01:39.100Z,82.87
2019-02-17T04:02:39.074Z,82.87
2019-02-17T04:03:39.356Z,82.87
2019-02-17T04:04:39.077Z,82.87
2019-02-17T04:05:39.045Z,82.98
2019-02-17T04:06:39.027Z,82.67
2019-02-17T04:07:39.081Z,82.98
2019-02-17T04:08:38.985Z,82.67
2019-02-17T04:09:39.003Z,82.46
2019-02-17T04:10:40.297Z,82.87
2019-02-17T04:11:38.988Z,82.98
2019-02-17T04:12:39.737Z,82.84
2019-02-17T04:13:39.029Z,82.67
2019-02-17T04:14:38.962Z,83.18
2019-02-17T04:15:38.932Z,82.67
2019-02-17T04:16:38.902Z,82.42
2019-02-17T04:17:39.259Z,82.63
2019-02-17T04:18:38.895Z,83.18
2019-02-17T04:19:38.921Z,82.98
2019-02-17T04:20:38.876Z,82.98
2019-02-17T04:21:38.869Z,82.98
2019-02-17T04:22:38.843Z,83.18
2019-02-17T04:23:38.847Z,82.73
2019-02-17T04:24:39.159Z,82.56
2019-02-17T04:25:38.859Z,82.94
2019-02-17T04:26:38.816Z,83.46
2019-02-17T04:27:38.817Z,83.46
2019-02-17T04:28:38.803Z,82.73
2019-02-17T04:29:38.778Z,82.53
2019-02-17T04:30:38.754Z,83.15
2019-02-17T04:31:38.938Z,82.63
2019-02-17T04:32:38.748Z,83.22
2019-02-17T04:33:38.823Z,82.63
2019-02-17T04:34:38.752Z,82.53
2019-02-17T04:35:38.710Z,82.42
2019-02-17T04:36:38.699Z,82.59
2019-02-17T04:37:39.059Z,82.70
2019-02-17T04:38:38.717Z,81.59
2019-02-17T04:39:38.675Z,81.66
2019-02-17T04:40:38.670Z,82.07
2019-02-17T04:41:38.679Z,81.56
2019-02-17T04:42:38.632Z,82.07
2019-02-17T04:43:39.306Z,81.87
2019-02-17T04:44:38.639Z,81.35
2019-02-17T04:45:38.622Z,81.66
2019-02-17T04:46:38.595Z,81.76
2019-02-17T04:47:38.576Z,81.66
2019-02-17T04:48:38.586Z,81.35
2019-02-17T04:49:39.188Z,81.93
2019-02-17T04:50:38.547Z,81.35
2019-02-17T04:51:38.547Z,81.35
2019-02-17T04:52:38.556Z,80.83
2019-02-17T04:53:38.508Z,81.24
2019-02-17T04:54:38.511Z,81.45
2019-02-17T04:55:38.552Z,81.24
2019-02-17T04:56:38.533Z,81.24
2019-02-17T04:57:38.495Z,80.62
2019-02-17T04:58:38.492Z,80.62
2019-02-17T04:59:38.459Z,81.14
2019-02-17T05:00:40.486Z,81.14
2019-02-17T05:01:38.485Z,81.04
2019-02-17T05:02:38.415Z,81.04
2019-02-17T05:03:38.422Z,81.04
2019-02-17T05:04:38.391Z,81.24
2019-02-17T05:05:38.377Z,81.14
2019-02-17T05:06:40.785Z,81.14
2019-02-17T05:07:38.735Z,81.14
2019-02-17T05:08:38.382Z,80.93
2019-02-17T05:09:38.380Z,81.24
2019-02-17T05:10:38.352Z,81.14
2019-02-17T05:11:38.337Z,81.24
2019-02-17T05:12:38.307Z,81.14
2019-02-17T05:13:38.365Z,81.24
2019-02-17T05:14:38.626Z,81.04
2019-02-17T05:15:38.307Z,81.24
2019-02-17T05:16:38.294Z,81.14
2019-02-17T05:17:38.256Z,80.93
2019-02-17T05:18:38.253Z,81.14
2019-02-17T05:19:38.315Z,81.35
2019-02-17T05:20:38.249Z,81.14
2019-02-17T05:21:38.213Z,81.30
2019-02-17T05:22:39.420Z,80.99
2019-02-17T05:23:38.254Z,80.47
2019-02-17T05:24:38.210Z,80.47
2019-02-17T05:25:38.242Z,80.62
2019-02-17T05:26:38.723Z,80.89
2019-02-17T05:27:38.506Z,80.73
2019-02-17T05:28:38.215Z,80.62
2019-02-17T05:29:38.136Z,80.52
2019-02-17T05:30:38.143Z,80.89
2019-02-17T05:31:38.147Z,80.62
2019-02-17T05:32:38.125Z,80.93
2019-02-17T05:33:38.379Z,80.41
2019-02-17T05:34:38.134Z,80.52
2019-02-17T05:35:38.162Z,81.35
2019-02-17T05:36:38.699Z,81.24
2019-02-17T05:37:38.101Z,80.73
2019-02-17T05:38:38.067Z,81.10
2019-02-17T05:39:38.027Z,80.83
2019-02-17T05:40:38.030Z,80.83
2019-02-17T05:41:38.061Z,80.68
2019-02-17T05:42:37.984Z,80.47
2019-02-17T05:43:38.211Z,80.58
2019-02-17T05:44:37.981Z,80.58
2019-02-17T05:45:38.447Z,80.99
2019-02-17T05:46:37.974Z,80.16
2019-02-17T05:47:37.937Z,80.89
2019-02-17T05:48:37.937Z,80.68
2019-02-17T05:49:38.015Z,80.02
2019-02-17T05:50:37.937Z,79.92
2019-02-17T05:51:37.897Z,79.82
2019-02-17T05:52:37.887Z,79.92
2019-02-17T05:53:37.931Z,79.20
2019-02-17T05:54:37.869Z,79.37
2019-02-17T05:55:37.935Z,79.51
2019-02-17T05:56:37.883Z,79.27
2019-02-17T05:57:37.838Z,79.06
2019-02-17T05:58:38.140Z,79.16
2019-02-17T05:59:37.815Z,79.47
2019-02-17T06:00:38.735Z,79.51
2019-02-17T06:01:37.888Z,79.41
2019-02-17T06:02:37.819Z,79.06
2019-02-17T06:03:37.767Z,78.89
2019-02-17T06:04:37.753Z,79.06
2019-02-17T06:05:38.067Z,78.75
2019-02-17T06:06:37.765Z,79.37
2019-02-17T06:07:38.726Z,78.85
2019-02-17T06:08:37.730Z,78.44
2019-02-17T06:09:37.715Z,78.54
2019-02-17T06:10:37.695Z,78.54
2019-02-17T06:11:37.709Z,78.02
2019-02-17T06:12:38.513Z,78.50
2019-02-17T06:13:37.716Z,78.09
2019-02-17T06:14:37.658Z,78.19
2019-02-17T06:15:37.666Z,78.09
2019-02-17T06:16:37.628Z,78.09
2019-02-17T06:17:37.619Z,78.09
2019-02-17T06:18:37.611Z,77.98
2019-02-17T06:19:37.932Z,78.40
2019-02-17T06:20:37.621Z,78.40
2019-02-17T06:21:37.581Z,78.30
2019-02-17T06:22:37.567Z,78.30
2019-02-17T06:23:37.583Z,78.50
2019-02-17T06:24:37.574Z,78.19
2019-02-17T06:25:37.575Z,78.30
2019-02-17T06:26:37.838Z,77.98
2019-02-17T06:27:37.517Z,78.30
2019-02-17T06:28:37.539Z,78.09
2019-02-17T06:29:37.517Z,78.30
2019-02-17T06:30:37.512Z,77.78
2019-02-17T06:31:37.532Z,78.30
2019-02-17T06:32:37.464Z,77.88
2019-02-17T06:33:37.759Z,78.30
2019-02-17T06:34:37.458Z,78.19
2019-02-17T06:35:38.223Z,78.61
2019-02-17T06:36:37.419Z,78.40
2019-02-17T06:37:37.474Z,78.40
2019-02-17T06:38:37.424Z,78.19
2019-02-17T06:39:37.392Z,78.61
2019-02-17T06:40:37.687Z,78.19
2019-02-17T06:41:37.379Z,77.74
2019-02-17T06:42:37.362Z,78.16
2019-02-17T06:43:37.410Z,78.19
2019-02-17T06:44:37.374Z,77.98
2019-02-17T06:45:37.357Z,77.95
2019-02-17T06:46:37.334Z,77.67
2019-02-17T06:47:37.821Z,77.64
2019-02-17T06:48:37.304Z,77.47
2019-02-17T06:49:37.390Z,77.64
2019-02-17T06:50:37.285Z,77.53
2019-02-17T06:51:37.298Z,77.95
2019-02-17T06:52:37.279Z,77.43
2019-02-17T06:53:37.259Z,77.01
2019-02-17T06:54:37.544Z,77.22
2019-02-17T06:55:37.771Z,77.29
2019-02-17T06:56:37.237Z,76.78
2019-02-17T06:57:38.199Z,76.67
2019-02-17T06:58:37.207Z,76.36
2019-02-17T06:59:37.183Z,76.57
2019-02-17T07:00:37.193Z,76.98
2019-02-17T07:01:37.998Z,77.09
2019-02-17T07:02:37.165Z,76.36
2019-02-17T07:03:37.190Z,76.26
2019-02-17T07:04:37.702Z,76.26
2019-02-17T07:05:38.713Z,75.84
2019-02-17T07:06:38.138Z,75.63
2019-02-17T07:07:37.473Z,75.84
2019-02-17T07:08:37.112Z,75.95
2019-02-17T07:09:37.123Z,76.36
2019-02-17T07:10:37.100Z,76.26
2019-02-17T07:11:37.100Z,76.05
2019-02-17T07:12:37.069Z,76.26
2019-02-17T07:13:37.268Z,76.26
2019-02-17T07:14:38.403Z,76.46
2019-02-17T07:15:37.047Z,76.32
2019-02-17T07:16:37.685Z,75.91
2019-02-17T07:17:36.996Z,75.81
2019-02-17T07:18:36.992Z,76.01
2019-02-17T07:19:37.109Z,75.50
2019-02-17T07:20:36.963Z,75.57
2019-02-17T07:21:37.288Z,75.40
2019-02-17T07:22:37.694Z,74.84
2019-02-17T07:23:36.939Z,74.95
2019-02-17T07:24:36.939Z,75.15
2019-02-17T07:25:37.061Z,74.84
2019-02-17T07:26:37.756Z,74.74
2019-02-17T07:27:36.910Z,74.43
2019-02-17T07:28:37.164Z,75.15
2019-02-17T07:29:36.872Z,74.57
2019-02-17T07:30:36.871Z,74.95
2019-02-17T07:31:37.155Z,74.98
2019-02-17T07:32:36.841Z,74.98
2019-02-17T07:33:36.843Z,74.74
2019-02-17T07:34:36.857Z,74.33
2019-02-17T07:35:37.139Z,74.63
2019-02-17T07:36:36.810Z,74.74
2019-02-17T07:37:37.650Z,74.53
2019-02-17T07:38:36.800Z,74.95
2019-02-17T07:39:36.802Z,74.33
2019-02-17T07:40:36.753Z,74.33
2019-02-17T07:41:36.756Z,74.22
2019-02-17T07:42:36.739Z,73.98
2019-02-17T07:43:36.774Z,74.02
2019-02-17T07:44:36.740Z,73.81
2019-02-17T07:45:36.709Z,73.81
2019-02-17T07:46:36.693Z,73.67
2019-02-17T07:47:36.675Z,74.08
2019-02-17T07:48:37.193Z,74.08
2019-02-17T07:49:36.755Z,73.98
2019-02-17T07:50:36.643Z,74.19
2019-02-17T07:51:36.652Z,73.67
2019-02-17T07:52:36.634Z,73.47
2019-02-17T07:53:36.625Z,73.36
2019-02-17T07:54:36.914Z,73.26
2019-02-17T07:55:36.651Z,73.22
2019-02-17T07:56:36.608Z,73.47
2019-02-17T07:57:36.577Z,73.43
2019-02-17T07:58:36.563Z,73.33
2019-02-17T07:59:36.561Z,72.91
2019-02-17T08:00:36.870Z,73.33
2019-02-17T08:01:45.029Z,72.81
2019-02-17T08:02:37.525Z,73.12
2019-02-17T08:03:36.544Z,73.02
2019-02-17T08:04:36.511Z,72.57
2019-02-17T08:05:36.495Z,71.92
2019-02-17T08:06:36.824Z,71.06
2019-02-17T08:07:36.542Z,69.14
2019-02-17T08:08:36.488Z,68.49
2019-02-17T08:09:36.455Z,67.97
2019-02-17T08:10:36.455Z,68.90
2019-02-17T08:11:36.433Z,68.73
2019-02-17T08:12:36.434Z,69.38
2019-02-17T08:13:40.094Z,69.82
2019-02-17T08:14:36.494Z,70.54
2019-02-17T08:15:36.402Z,70.75
2019-02-17T08:16:36.392Z,70.37
2019-02-17T08:17:36.365Z,70.68
2019-02-17T08:18:36.375Z,70.57
2019-02-17T08:19:36.441Z,70.89
2019-02-17T08:20:36.777Z,71.09
2019-02-17T08:21:36.340Z,70.89
2019-02-17T08:22:36.318Z,70.89
2019-02-17T08:23:36.287Z,70.57
2019-02-17T08:24:36.294Z,70.75
2019-02-17T08:25:36.389Z,70.89
2019-02-17T08:26:36.267Z,70.86
2019-02-17T08:27:36.574Z,70.75
2019-02-17T08:28:36.278Z,70.86
2019-02-17T08:29:36.237Z,70.86
2019-02-17T08:30:36.256Z,70.86
2019-02-17T08:31:36.276Z,70.65
2019-02-17T08:32:36.201Z,70.65
2019-02-17T08:33:36.195Z,70.54
2019-02-17T08:34:36.476Z,70.65
2019-02-17T08:35:36.175Z,70.96
2019-02-17T08:36:36.166Z,70.44
2019-02-17T08:37:36.201Z,70.54
2019-02-17T08:38:36.157Z,70.03
2019-02-17T08:39:36.145Z,69.89
2019-02-17T08:40:36.675Z,70.75
2019-02-17T08:41:36.415Z,70.10
2019-02-17T08:42:36.115Z,70.72
2019-02-17T08:43:36.147Z,70.20
2019-02-17T08:44:36.716Z,69.69
2019-02-17T08:45:36.671Z,69.17
2019-02-17T08:46:36.144Z,69.79
2019-02-17T08:47:36.053Z,70.82
2019-02-17T08:48:36.984Z,70.00
2019-02-17T08:49:36.070Z,70.72
2019-02-17T08:50:36.151Z,70.20
2019-02-17T08:51:36.660Z,70.10
2019-02-17T08:52:35.989Z,70.31
2019-02-17T08:53:35.975Z,70.51
2019-02-17T08:54:36.692Z,70.72
2019-02-17T08:55:36.341Z,70.79
2019-02-17T08:56:36.689Z,70.20
2019-02-17T08:57:37.981Z,70.58
2019-02-17T08:58:36.722Z,70.20
2019-02-17T08:59:35.940Z,70.10
2019-02-17T09:00:35.931Z,70.20
2019-02-17T09:01:37.205Z,70.72
2019-02-17T09:02:36.430Z,70.72
2019-02-17T09:03:36.053Z,70.41
2019-02-17T09:04:35.865Z,70.20
2019-02-17T09:05:43.880Z,70.20
2019-02-17T09:06:36.849Z,70.68
2019-02-17T09:07:35.950Z,69.89
2019-02-17T09:08:35.840Z,69.96
2019-02-17T09:09:36.177Z,69.45
2019-02-17T09:10:35.798Z,69.24
2019-02-17T09:11:35.807Z,69.65
2019-02-17T09:12:35.769Z,69.35
2019-02-17T09:13:35.830Z,69.65
2019-02-17T09:14:35.759Z,68.93
2019-02-17T09:15:35.832Z,69.21
2019-02-17T09:16:35.874Z,69.21
2019-02-17T09:17:35.743Z,69.21
2019-02-17T09:18:35.890Z,69.42
2019-02-17T09:19:36.271Z,69.31
2019-02-17T09:20:35.744Z,68.87
2019-02-17T09:21:35.760Z,68.87
2019-02-17T09:22:35.674Z,68.53
2019-02-17T09:23:35.709Z,68.46
2019-02-17T09:24:36.197Z,67.91
2019-02-17T09:25:35.808Z,68.02
2019-02-17T09:26:35.733Z,68.43
2019-02-17T09:27:36.068Z,68.43
2019-02-17T09:28:35.619Z,67.91
2019-02-17T09:29:35.729Z,68.12
2019-02-17T09:30:35.629Z,68.12
2019-02-17T09:31:35.898Z,68.53
2019-02-17T09:32:35.595Z,68.02
2019-02-17T09:33:35.635Z,67.98
2019-02-17T09:34:35.609Z,67.57
2019-02-17T09:35:35.554Z,67.68
2019-02-17T09:36:35.530Z,68.08
2019-02-17T09:37:36.625Z,68.26
2019-02-17T09:38:35.571Z,67.03
2019-02-17T09:40:44.879Z,66.72
2019-02-17T09:41:44.833Z,67.33
2019-02-17T09:42:44.871Z,67.00
2019-02-17T09:43:45.676Z,66.28
2019-02-17T09:44:44.799Z,66.58
2019-02-17T09:45:44.784Z,67.00
2019-02-17T09:46:45.140Z,66.58
2019-02-17T09:47:44.788Z,66.89
2019-02-17T09:48:44.790Z,66.07
2019-02-17T09:49:44.741Z,66.79
2019-02-17T09:50:44.816Z,66.28
2019-02-17T09:51:44.732Z,66.07
2019-02-17T09:52:45.456Z,66.14
2019-02-17T09:53:44.701Z,65.53
2019-02-17T09:54:44.781Z,65.29
2019-02-17T09:55:44.675Z,65.39
2019-02-17T09:56:44.685Z,65.70
2019-02-17T09:57:44.658Z,64.98
2019-02-17T09:58:45.917Z,65.70
2019-02-17T09:59:44.634Z,65.70
2019-02-17T10:00:44.748Z,65.57
2019-02-17T10:03:23.778Z,65.26
2019-02-17T10:04:22.701Z,64.75
2019-02-17T10:05:22.682Z,65.16
2019-02-17T10:06:22.676Z,64.75
2019-02-17T10:07:22.684Z,64.72
2019-02-17T10:08:22.656Z,64.41
2019-02-17T10:09:22.989Z,64.54
2019-02-17T10:10:22.632Z,64.44
2019-02-17T10:11:22.627Z,63.79
2019-02-17T10:12:22.611Z,63.69
2019-02-17T10:13:22.607Z,63.69
2019-02-17T10:14:22.780Z,63.39
2019-02-17T10:15:23.271Z,63.39
2019-02-17T10:16:22.565Z,63.15
2019-02-17T10:17:22.554Z,62.95
2019-02-17T10:18:22.558Z,62.74
2019-02-17T10:19:22.539Z,63.15
2019-02-17T10:20:24.435Z,62.84
2019-02-17T10:21:23.863Z,62.84
2019-02-17T10:22:22.755Z,63.35
2019-02-17T10:23:22.582Z,63.05
2019-02-17T10:24:22.500Z,63.15
2019-02-17T10:25:22.481Z,62.81
2019-02-17T10:26:22.464Z,62.71
2019-02-17T10:27:22.499Z,62.61
2019-02-17T10:28:22.448Z,62.40
2019-02-17T10:29:22.426Z,62.51
2019-02-17T10:30:22.419Z,62.51
2019-02-17T10:31:22.414Z,61.66
2019-02-17T10:32:23.284Z,61.96
2019-02-17T10:33:22.427Z,61.76
2019-02-17T10:34:22.384Z,61.11
2019-02-17T10:35:22.367Z,61.52
2019-02-17T10:36:22.383Z,61.11
2019-02-17T10:37:22.360Z,61.52
2019-02-17T10:38:22.347Z,61.83
2019-02-17T10:39:23.016Z,60.91
2019-02-17T10:40:23.323Z,61.32
2019-02-17T10:41:22.304Z,60.68
2019-02-17T10:42:22.291Z,60.99
2019-02-17T10:43:22.285Z,61.09
2019-02-17T10:44:22.271Z,60.99
2019-02-17T10:45:22.580Z,61.80
2019-02-17T10:46:22.738Z,61.60
2019-02-17T10:47:22.262Z,61.67
2019-02-17T10:48:22.229Z,61.36
2019-02-17T10:49:22.251Z,61.09
2019-02-17T10:50:22.208Z,60.96
2019-02-17T10:51:22.265Z,60.85
2019-02-17T10:52:22.191Z,60.96
2019-02-17T10:53:23.074Z,61.06
2019-02-17T10:54:23.145Z,60.75
2019-02-17T10:55:22.154Z,60.65
2019-02-17T10:56:22.143Z,61.06
2019-02-17T10:57:22.203Z,60.55
2019-02-17T10:58:22.125Z,60.31
2019-02-17T10:59:22.119Z,60.42
2019-02-17T11:00:22.538Z,60.11
2019-02-17T11:01:22.154Z,60.21
2019-02-17T11:02:22.080Z,59.57
2019-02-17T11:03:22.133Z,60.08
2019-02-17T11:04:22.186Z,59.09
2019-02-17T11:05:22.048Z,59.47
2019-02-17T11:06:22.098Z,58.96
2019-02-17T11:07:23.156Z,58.62
2019-02-17T11:08:22.121Z,58.65
2019-02-17T11:09:23.377Z,59.06
2019-02-17T11:10:22.838Z,58.55
2019-02-17T11:11:22.047Z,58.55
2019-02-17T11:12:23.640Z,58.52
2019-02-17T11:13:22.040Z,58.01
2019-02-17T11:14:22.314Z,57.29
2019-02-17T11:15:22.827Z,57.40
2019-02-17T11:16:21.939Z,57.63
2019-02-17T11:17:21.922Z,57.40
2019-02-17T11:18:22.782Z,57.09
2019-02-17T11:19:21.905Z,55.97
2019-02-17T11:20:21.973Z,56.99
2019-02-17T11:21:22.342Z,57.29
2019-02-17T11:22:23.361Z,57.40
2019-02-17T11:23:21.859Z,57.27
2019-02-17T11:24:21.875Z,56.86
2019-02-17T11:25:21.841Z,56.89
2019-02-17T11:26:21.925Z,57.29
2019-02-17T11:27:21.855Z,57.81
2019-02-17T11:28:22.326Z,57.37
2019-02-17T11:29:21.838Z,57.37
2019-02-17T11:30:21.856Z,57.37
2019-02-17T11:31:21.792Z,56.66
2019-02-17T11:32:21.863Z,56.94
2019-02-17T11:33:21.847Z,56.73
2019-02-17T11:34:21.792Z,56.73
2019-02-17T11:35:22.042Z,56.71
2019-02-17T11:36:21.758Z,55.71
2019-02-17T11:37:21.711Z,55.82
2019-02-17T11:38:21.715Z,56.30
2019-02-17T11:39:21.732Z,55.48
2019-02-17T11:40:21.679Z,55.99
2019-02-17T11:41:21.671Z,56.10
2019-02-17T11:42:21.944Z,56.20
2019-02-17T11:43:21.656Z,56.17
2019-02-17T11:44:21.642Z,56.04
2019-02-17T11:45:21.669Z,54.97
2019-02-17T11:46:21.740Z,53.59
2019-02-17T11:47:21.604Z,51.59
2019-02-17T11:48:21.608Z,49.29
2019-02-17T11:49:22.811Z,47.47
2019-02-17T11:50:21.575Z,46.64
2019-02-17T11:51:21.703Z,45.10
2019-02-17T11:52:21.610Z,44.13
2019-02-17T11:53:21.541Z,42.25
2019-02-17T11:54:21.535Z,40.77
2019-02-17T11:55:22.888Z,39.64
2019-02-17T11:56:22.721Z,39.30
2019-02-17T11:57:21.645Z,37.74
2019-02-17T11:58:22.238Z,37.29
2019-02-17T11:59:21.686Z,37.94
2019-02-17T12:00:21.640Z,36.88
2019-02-17T12:01:21.463Z,36.40
2019-02-17T12:02:24.830Z,35.55
2019-02-17T12:03:21.491Z,34.78
2019-02-17T12:04:21.463Z,33.66
2019-02-17T12:05:21.420Z,34.08
2019-02-17T12:06:21.426Z,33.56
2019-02-17T12:07:21.443Z,34.48
2019-02-17T12:08:21.404Z,36.65
2019-02-17T12:09:21.802Z,37.57
2019-02-17T12:10:21.388Z,36.40
2019-02-17T12:11:21.364Z,36.32
2019-02-17T12:12:21.346Z,36.20
2019-02-17T12:13:21.355Z,35.03
2019-02-17T12:14:21.337Z,34.21
2019-02-17T12:15:21.366Z,35.03
2019-02-17T12:16:21.339Z,33.31
2019-02-17T12:17:21.292Z,33.50
2019-02-17T12:18:21.303Z,33.80
2019-02-17T12:19:21.283Z,34.43
2019-02-17T12:20:21.264Z,34.41
2019-02-17T12:21:21.801Z,33.66
2019-02-17T12:22:21.829Z,32.86
2019-02-17T12:23:21.236Z,32.67
2019-02-17T12:24:21.237Z,33.08
2019-02-17T12:25:21.349Z,33.06
2019-02-17T12:26:21.205Z,33.45
2019-02-17T12:27:21.279Z,33.16
2019-02-17T12:28:21.558Z,32.70
2019-02-17T12:29:21.298Z,34.09
2019-02-17T12:30:21.209Z,32.68
2019-02-17T12:31:21.431Z,32.56
2019-02-17T12:32:21.328Z,33.45
2019-02-17T12:33:21.819Z,32.85
2019-02-17T12:34:22.342Z,32.65
2019-02-17T12:35:21.567Z,33.08
2019-02-17T12:36:21.159Z,32.65
2019-02-17T12:37:21.098Z,32.42
2019-02-17T12:38:21.083Z,32.53
2019-02-17T12:39:21.143Z,33.16
2019-02-17T12:40:21.779Z,32.33
2019-02-17T12:41:21.069Z,32.75
2019-02-17T12:42:21.776Z,31.04
2019-02-17T12:43:21.038Z,32.02
2019-02-17T12:44:21.045Z,32.43
2019-02-17T12:45:21.096Z,32.03
2019-02-17T12:46:21.810Z,31.82
2019-02-17T12:47:21.280Z,32.43
2019-02-17T12:48:21.008Z,32.78
2019-02-17T12:49:20.975Z,33.61
2019-02-17T12:50:21.018Z,34.24
2019-02-17T12:51:21.012Z,34.38
2019-02-17T12:52:20.998Z,36.36
2019-02-17T12:53:20.934Z,37.96
2019-02-17T12:54:28.854Z,40.46
2019-02-17T12:55:21.937Z,42.23
2019-02-17T12:56:20.985Z,43.38